createdAt,value
2023-01-22T00:00:09.901Z,0.19
2023-01-22T00:02:36.906Z,0.30
2023-01-22T00:05:04.599Z,0.30
2023-01-22T00:20:26.826Z,0.30
2023-01-22T00:22:53.463Z,0.29
2023-01-22T00:27:51.267Z,0.24
2023-01-22T00:30:18.164Z,0.46
2023-01-22T00:32:46.085Z,0.44
2023-01-22T00:35:13.544Z,0.39
2023-01-22T00:37:40.123Z,0.18
2023-01-22T00:42:40.036Z,0.37
2023-01-22T00:45:07.403Z,0.39
2023-01-22T00:47:34.026Z,0.37
2023-01-22T00:50:00.817Z,0.29
2023-01-22T00:52:27.402Z,0.31
2023-01-22T00:54:53.939Z,0.32
2023-01-22T00:57:22.087Z,0.26
2023-01-22T00:59:49.067Z,0.26
2023-01-22T01:04:47.782Z,0.21
2023-01-22T01:07:14.337Z,0.22
2023-01-22T01:09:40.876Z,0.34
2023-01-22T01:12:09.011Z,0.31
2023-01-22T01:14:35.886Z,0.22
2023-01-22T01:19:33.847Z,0.09
2023-01-22T01:22:00.396Z,0.25
2023-01-22T01:24:27.084Z,0.22
2023-01-22T01:26:53.683Z,0.30
2023-01-22T01:29:20.266Z,0.21
2023-01-22T01:31:47.888Z,0.22
2023-01-22T01:34:14.621Z,0.09
2023-01-22T01:36:48.860Z,0.16
2023-01-22T01:39:16.778Z,0.19
2023-01-22T01:41:43.360Z,0.14
2023-01-22T01:44:18.443Z,0.16
2023-01-22T01:46:57.945Z,0.22
2023-01-22T01:49:32.041Z,0.24
2023-01-22T01:52:03.160Z,0.24
2023-01-22T01:54:31.095Z,0.10
2023-01-22T01:57:06.342Z,0.20
2023-01-22T01:59:35.222Z,0.27
2023-01-22T02:02:02.989Z,0.26
2023-01-22T02:04:30.206Z,0.18
2023-01-22T02:06:56.762Z,0.14
2023-01-22T02:09:23.739Z,0.18
2023-01-22T02:11:52.120Z,0.22
2023-01-22T02:14:22.928Z,0.22
2023-01-22T02:17:00.773Z,0.35
2023-01-22T02:19:27.424Z,0.26
2023-01-22T02:24:32.583Z,0.34
2023-01-22T02:26:59.236Z,0.27
2023-01-22T02:29:27.291Z,0.29
2023-01-22T02:31:53.897Z,0.29
2023-01-22T02:34:24.599Z,0.35
2023-01-22T02:36:52.126Z,0.31
2023-01-22T02:39:18.658Z,0.30
2023-01-22T02:41:46.065Z,0.37
2023-01-22T02:44:12.672Z,0.31
2023-01-22T02:46:40.098Z,0.34
2023-01-22T02:49:06.691Z,0.30
2023-01-22T02:51:33.583Z,0.42
2023-01-22T02:54:00.316Z,0.26
2023-01-22T02:56:26.869Z,0.25
2023-01-22T02:58:53.532Z,0.40
2023-01-22T03:01:23.253Z,0.48
2023-01-22T03:03:51.352Z,0.44
2023-01-22T03:06:22.096Z,0.43
2023-01-22T03:08:50.449Z,0.49
2023-01-22T03:11:17.061Z,0.44
2023-01-22T03:14:02.262Z,0.52
2023-01-22T03:16:47.632Z,0.57
2023-01-22T03:19:32.584Z,0.46
2023-01-22T03:21:59.101Z,0.46
2023-01-22T03:24:25.915Z,0.43
2023-01-22T03:26:52.675Z,0.48
2023-01-22T03:29:19.434Z,0.42
2023-01-22T03:31:48.713Z,0.39
2023-01-22T03:34:20.264Z,0.51
2023-01-22T03:36:47.222Z,0.44
2023-01-22T03:39:13.941Z,0.42
2023-01-22T03:41:40.916Z,0.38
2023-01-22T03:44:11.770Z,0.46
2023-01-22T03:49:18.778Z,0.48
2023-01-22T03:51:45.546Z,0.40
2023-01-22T03:54:13.796Z,0.49
2023-01-22T03:56:42.012Z,0.42
2023-01-22T03:59:10.253Z,0.29
2023-01-22T04:01:37.283Z,0.39
2023-01-22T04:04:04.032Z,0.40
2023-01-22T04:06:30.825Z,0.32
2023-01-22T04:08:57.662Z,0.39
2023-01-22T04:11:24.372Z,0.44
2023-01-22T04:13:51.057Z,0.42
2023-01-22T04:18:48.873Z,0.37
2023-01-22T04:21:15.517Z,0.46
2023-01-22T04:23:42.085Z,0.46
2023-01-22T04:26:08.658Z,0.52
2023-01-22T04:28:35.298Z,0.52
2023-01-22T04:31:02.267Z,0.48
2023-01-22T04:33:28.880Z,0.46
2023-01-22T04:35:55.665Z,0.52
2023-01-22T04:38:22.728Z,0.57
2023-01-22T04:40:50.235Z,0.46
2023-01-22T04:43:16.898Z,0.34
2023-01-22T04:45:43.557Z,0.46
2023-01-22T04:48:11.313Z,0.41
2023-01-22T04:50:37.892Z,0.40
2023-01-22T04:53:05.187Z,0.40
2023-01-22T04:55:31.828Z,0.45
2023-01-22T04:58:00.199Z,0.47
2023-01-22T05:00:29.019Z,0.47
2023-01-22T05:05:29.695Z,0.45
2023-01-22T05:07:56.592Z,0.40
2023-01-22T05:10:23.585Z,0.41
2023-01-22T05:12:50.891Z,0.44
2023-01-22T05:15:24.386Z,0.48
2023-01-22T05:17:55.488Z,0.42
2023-01-22T05:20:22.034Z,0.49
2023-01-22T05:22:49.118Z,0.54
2023-01-22T05:25:15.795Z,0.45
2023-01-22T05:27:42.327Z,0.46
2023-01-22T05:30:10.646Z,0.39
2023-01-22T05:32:37.391Z,0.44
2023-01-22T05:35:05.921Z,0.41
2023-01-22T05:37:34.088Z,0.46
2023-01-22T05:40:00.767Z,0.54
2023-01-22T05:42:27.390Z,0.52
2023-01-22T05:44:53.947Z,0.44
2023-01-22T05:47:20.544Z,0.41
2023-01-22T05:49:47.151Z,0.41
2023-01-22T05:52:13.825Z,0.46
2023-01-22T05:57:11.879Z,0.43
2023-01-22T05:59:38.498Z,0.45
2023-01-22T06:02:05.100Z,0.42
2023-01-22T06:04:31.682Z,0.42
2023-01-22T06:06:58.264Z,0.69
2023-01-22T06:09:25.031Z,0.77
2023-01-22T06:11:51.641Z,0.73
2023-01-22T06:14:18.290Z,0.82
2023-01-22T06:16:44.981Z,0.59
2023-01-22T06:19:12.763Z,0.49
2023-01-22T06:21:39.534Z,0.43
2023-01-22T06:24:06.507Z,0.54
2023-01-22T06:31:35.991Z,0.56
2023-01-22T06:34:03.565Z,0.56
2023-01-22T06:36:30.119Z,0.50
2023-01-22T06:38:56.676Z,0.51
2023-01-22T06:41:23.475Z,0.49
2023-01-22T06:43:50.032Z,0.57
2023-01-22T06:46:16.989Z,0.67
2023-01-22T06:48:44.035Z,0.61
2023-01-22T06:51:11.085Z,0.66
2023-01-22T06:53:38.126Z,0.49
2023-01-22T06:56:05.355Z,0.54
2023-01-22T06:58:32.014Z,0.83
2023-01-22T07:01:02.435Z,0.79
2023-01-22T07:03:29.087Z,0.96
2023-01-22T07:06:00.155Z,1.01
2023-01-22T07:08:28.056Z,1.05
2023-01-22T07:10:54.855Z,1.00
2023-01-22T07:13:22.072Z,0.90
2023-01-22T07:15:48.876Z,0.68
2023-01-22T07:20:50.664Z,0.83
2023-01-22T07:23:17.381Z,0.83
2023-01-22T07:25:44.913Z,0.79
2023-01-22T07:28:15.029Z,0.85
2023-01-22T07:30:42.903Z,0.87
2023-01-22T07:33:10.997Z,0.80
2023-01-22T07:35:37.602Z,0.73
2023-01-22T07:38:04.231Z,0.85
2023-01-22T07:40:30.806Z,0.76
2023-01-22T07:42:57.443Z,0.94
2023-01-22T07:45:25.583Z,1.01
2023-01-22T07:47:54.660Z,1.13
2023-01-22T07:50:26.427Z,1.04
2023-01-22T07:52:53.313Z,1.13
2023-01-22T07:55:20.083Z,1.01
2023-01-22T07:57:46.734Z,1.03
2023-01-22T08:00:16.209Z,1.01
2023-01-22T08:02:43.044Z,0.87
2023-01-22T08:05:12.549Z,0.92
2023-01-22T08:07:39.117Z,0.97
2023-01-22T08:10:06.168Z,0.87
2023-01-22T08:12:32.850Z,0.89
2023-01-22T08:14:59.430Z,0.91
2023-01-22T08:17:26.014Z,0.81
2023-01-22T08:19:52.604Z,0.78
2023-01-22T08:22:19.157Z,0.73
2023-01-22T08:24:45.760Z,0.71
2023-01-22T08:27:12.424Z,0.84
2023-01-22T08:29:39.025Z,0.81
2023-01-22T08:32:07.190Z,0.85
2023-01-22T08:34:33.941Z,0.90
2023-01-22T08:37:00.547Z,0.99
2023-01-22T08:39:27.167Z,0.97
2023-01-22T08:41:57.838Z,0.96
2023-01-22T08:44:25.166Z,0.87
2023-01-22T08:46:52.253Z,0.93
2023-01-22T08:49:19.081Z,1.01
2023-01-22T08:51:45.649Z,1.09
2023-01-22T08:54:12.281Z,0.97
2023-01-22T08:56:38.880Z,1.04
2023-01-22T08:59:06.854Z,1.17
2023-01-22T09:01:33.783Z,1.15
2023-01-22T09:04:00.464Z,1.28
2023-01-22T09:06:27.392Z,1.36
2023-01-22T09:08:54.309Z,1.37
2023-01-22T09:11:20.990Z,1.26
2023-01-22T09:13:47.598Z,1.32
2023-01-22T09:16:14.278Z,1.36
2023-01-22T09:18:41.612Z,1.42
2023-01-22T09:21:08.647Z,1.47
2023-01-22T09:23:35.310Z,1.40
2023-01-22T09:26:02.088Z,1.28
2023-01-22T09:28:28.770Z,1.44
2023-01-22T09:30:55.466Z,1.51
2023-01-22T09:33:22.099Z,1.44
2023-01-22T09:35:48.683Z,1.50
2023-01-22T09:38:15.565Z,1.59
2023-01-22T09:40:44.365Z,1.57
2023-01-22T09:43:25.919Z,1.68
2023-01-22T09:45:56.919Z,1.67
2023-01-22T09:48:33.279Z,1.58
2023-01-22T09:51:00.333Z,1.57
2023-01-22T09:53:28.825Z,1.55
2023-01-22T09:55:56.123Z,1.67
2023-01-22T09:58:25.269Z,1.76
2023-01-22T10:01:00.345Z,1.78
2023-01-22T10:03:44.920Z,1.77
2023-01-22T10:06:14.976Z,1.85
2023-01-22T10:08:53.964Z,1.94
2023-01-22T10:11:20.860Z,1.98
2023-01-22T10:13:53.655Z,1.99
2023-01-22T10:16:20.348Z,2.08
2023-01-22T10:19:03.145Z,2.03
2023-01-22T10:21:32.509Z,2.10
2023-01-22T10:23:59.943Z,2.09
2023-01-22T10:26:52.908Z,2.01
2023-01-22T10:29:24.648Z,1.95
2023-01-22T10:31:55.284Z,2.05
2023-01-22T10:34:27.493Z,2.02
2023-01-22T10:36:54.750Z,2.06
2023-01-22T10:39:22.046Z,2.05
2023-01-22T10:41:49.623Z,2.05
2023-01-22T10:44:16.178Z,2.11
2023-01-22T10:46:43.473Z,2.09
2023-01-22T10:49:27.467Z,2.10
2023-01-22T10:51:56.448Z,2.11
2023-01-22T10:54:25.787Z,2.01
2023-01-22T10:56:53.893Z,1.98
2023-01-22T10:59:24.625Z,2.05
2023-01-22T11:01:59.921Z,2.07
2023-01-22T11:04:29.720Z,1.99
2023-01-22T11:07:14.623Z,2.01
2023-01-22T11:09:51.939Z,2.11
2023-01-22T11:12:27.395Z,2.16
2023-01-22T11:15:06.547Z,2.24
2023-01-22T11:17:45.494Z,2.24
2023-01-22T11:20:44.366Z,2.06
2023-01-22T11:23:10.882Z,2.25
2023-01-22T11:26:02.704Z,2.27
2023-01-22T11:29:04.918Z,2.27
2023-01-22T11:31:50.088Z,2.28
2023-01-22T11:34:28.249Z,2.38
2023-01-22T11:37:02.589Z,2.29
2023-01-22T11:39:52.173Z,2.27
2023-01-22T11:42:43.676Z,2.22
2023-01-22T11:45:18.966Z,2.12
2023-01-22T11:48:00.294Z,2.10
2023-01-22T11:50:50.007Z,2.22
2023-01-22T11:54:05.472Z,2.21
2023-01-22T11:56:48.906Z,2.24
2023-01-22T11:59:23.415Z,2.22
2023-01-22T12:02:40.387Z,2.74
2023-01-22T12:05:26.085Z,2.70
2023-01-22T12:08:17.510Z,3.88
2023-01-22T12:13:52.300Z,2.68
2023-01-22T12:16:24.008Z,2.61
2023-01-22T12:19:10.443Z,2.39
2023-01-22T12:22:00.267Z,2.40
2023-01-22T12:24:39.776Z,2.20
2023-01-22T12:27:22.676Z,2.15
2023-01-22T12:29:55.760Z,2.20
2023-01-22T12:32:24.541Z,2.26
2023-01-22T12:34:57.087Z,2.25
2023-01-22T12:37:28.831Z,2.18
2023-01-22T12:40:20.141Z,2.29
2023-01-22T12:42:56.240Z,2.06
2023-01-22T12:45:32.894Z,2.22
2023-01-22T12:48:21.581Z,2.15
2023-01-22T12:50:50.886Z,2.19
2023-01-22T12:53:34.884Z,2.17
2023-01-22T12:56:10.612Z,2.13
2023-01-22T12:58:39.821Z,2.27
2023-01-22T13:01:06.627Z,2.40
2023-01-22T13:06:36.486Z,2.26
2023-01-22T13:09:22.294Z,2.85
2023-01-22T13:11:48.891Z,2.65
2023-01-22T13:14:26.938Z,2.45
2023-01-22T13:17:00.314Z,2.40
2023-01-22T13:19:31.028Z,2.38
2023-01-22T13:22:01.095Z,2.50
2023-01-22T13:24:27.769Z,2.39
2023-01-22T13:27:00.557Z,2.26
2023-01-22T13:29:34.211Z,2.31
2023-01-22T13:32:06.738Z,2.41
2023-01-22T13:34:33.317Z,2.25
2023-01-22T13:36:59.897Z,2.28
2023-01-22T13:39:31.867Z,2.31
2023-01-22T13:42:01.477Z,2.21
2023-01-22T13:44:40.258Z,2.15
2023-01-22T13:47:07.113Z,2.35
2023-01-22T13:49:41.708Z,2.36
2023-01-22T13:52:16.912Z,2.26
2023-01-22T13:54:48.009Z,2.20
2023-01-22T13:57:18.743Z,2.22
2023-01-22T13:59:55.369Z,2.21
2023-01-22T14:02:23.351Z,2.15
2023-01-22T14:04:50.592Z,2.17
2023-01-22T14:07:29.498Z,2.19
2023-01-22T14:09:57.164Z,2.35
2023-01-22T14:12:26.874Z,2.30
2023-01-22T14:14:54.442Z,2.37
2023-01-22T14:17:27.099Z,2.33
2023-01-22T14:22:27.777Z,2.31
2023-01-22T14:24:54.841Z,2.28
2023-01-22T14:27:28.423Z,2.20
2023-01-22T14:29:55.564Z,2.24
2023-01-22T14:32:23.965Z,2.19
2023-01-22T14:34:50.536Z,2.50
2023-01-22T14:37:19.041Z,2.39
2023-01-22T14:39:45.654Z,2.41
2023-01-22T14:42:12.354Z,2.31
2023-01-22T14:44:38.999Z,2.28
2023-01-22T14:47:05.605Z,2.27
2023-01-22T14:49:32.892Z,2.18
2023-01-22T14:51:59.812Z,2.18
2023-01-22T14:54:26.498Z,2.18
2023-01-22T14:56:54.027Z,2.22
2023-01-22T14:59:21.055Z,2.21
2023-01-22T15:01:47.792Z,2.29
2023-01-22T15:04:14.421Z,2.18
2023-01-22T15:06:40.990Z,2.25
2023-01-22T15:09:07.837Z,2.33
2023-01-22T15:11:34.387Z,2.24
2023-01-22T15:14:00.996Z,2.26
2023-01-22T15:16:27.807Z,2.18
2023-01-22T15:18:56.529Z,2.13
2023-01-22T15:21:23.494Z,2.10
2023-01-22T15:23:50.959Z,2.17
2023-01-22T15:26:28.905Z,2.20
2023-01-22T15:31:28.906Z,2.07
2023-01-22T15:33:56.093Z,2.09
2023-01-22T15:36:22.634Z,2.12
2023-01-22T15:38:49.301Z,2.07
2023-01-22T15:41:23.355Z,2.40
2023-01-22T15:43:51.190Z,2.23
2023-01-22T15:46:24.798Z,2.15
2023-01-22T15:48:52.303Z,2.10
2023-01-22T15:51:19.580Z,2.05
2023-01-22T15:53:50.594Z,2.15
2023-01-22T15:56:19.057Z,2.15
2023-01-22T15:58:45.879Z,2.15
2023-01-22T16:01:12.588Z,2.11
2023-01-22T16:03:39.178Z,2.06
2023-01-22T16:06:08.643Z,2.03
2023-01-22T16:08:35.170Z,2.07
2023-01-22T16:11:01.765Z,2.13
2023-01-22T16:13:28.291Z,2.03
2023-01-22T16:16:03.755Z,2.06
2023-01-22T16:18:33.374Z,2.04
2023-01-22T16:21:01.757Z,2.10
2023-01-22T16:23:28.348Z,2.08
2023-01-22T16:25:55.128Z,2.05
2023-01-22T16:28:21.798Z,1.98
2023-01-22T16:30:48.368Z,2.01
2023-01-22T16:33:22.151Z,1.97
2023-01-22T16:35:48.867Z,1.94
2023-01-22T16:38:15.412Z,1.96
2023-01-22T16:40:42.007Z,1.96
2023-01-22T16:43:08.576Z,1.93
2023-01-22T16:45:35.507Z,2.05
2023-01-22T16:48:02.139Z,1.96
2023-01-22T16:50:28.880Z,1.99
2023-01-22T16:52:55.396Z,1.99
2023-01-22T16:55:22.126Z,2.03
2023-01-22T16:57:48.966Z,1.98
2023-01-22T17:00:15.886Z,2.13
2023-01-22T17:02:42.500Z,2.00
2023-01-22T17:05:13.028Z,2.06
2023-01-22T17:07:40.872Z,2.05
2023-01-22T17:10:08.185Z,2.07
2023-01-22T17:12:35.114Z,2.00
2023-01-22T17:15:01.707Z,2.02
2023-01-22T17:17:28.238Z,1.92
2023-01-22T17:19:55.019Z,1.88
2023-01-22T17:22:21.602Z,1.85
2023-01-22T17:24:48.278Z,1.90
2023-01-22T17:27:18.611Z,1.84
2023-01-22T17:29:45.269Z,2.60
2023-01-22T17:32:11.826Z,2.27
2023-01-22T17:34:38.349Z,2.10
2023-01-22T17:37:09.607Z,1.97
2023-01-22T17:39:36.483Z,1.96
2023-01-22T17:42:03.170Z,1.93
2023-01-22T17:44:34.424Z,2.05
2023-01-22T17:47:02.984Z,1.94
2023-01-22T17:49:30.523Z,1.93
2023-01-22T17:51:57.204Z,1.81
2023-01-22T17:54:23.829Z,2.14
2023-01-22T17:56:53.348Z,2.11
2023-01-22T17:59:22.070Z,2.08
2023-01-22T18:01:49.157Z,2.05
2023-01-22T18:04:16.364Z,2.34
2023-01-22T18:06:44.193Z,2.27
2023-01-22T18:09:12.016Z,2.68
2023-01-22T18:11:39.159Z,2.28
2023-01-22T18:14:15.870Z,2.25
2023-01-22T18:16:42.602Z,2.17
2023-01-22T18:19:09.728Z,2.07
2023-01-22T18:21:37.975Z,1.95
2023-01-22T18:24:06.477Z,2.08
2023-01-22T18:26:34.480Z,2.12
2023-01-22T18:29:02.059Z,2.01
2023-01-22T18:31:29.600Z,3.97
2023-01-22T18:33:58.315Z,4.51
2023-01-22T18:36:26.885Z,3.37
2023-01-22T18:38:54.409Z,2.84
2023-01-22T18:41:23.936Z,2.50
2023-01-22T18:43:53.751Z,2.38
2023-01-22T18:46:20.598Z,2.07
2023-01-22T18:48:47.280Z,1.91
2023-01-22T18:51:13.962Z,1.99
2023-01-22T18:53:41.786Z,1.89
2023-01-22T18:56:10.185Z,1.89
2023-01-22T18:58:38.022Z,1.77
2023-01-22T19:01:19.792Z,1.71
2023-01-22T19:04:01.604Z,1.65
2023-01-22T19:06:31.544Z,1.68
2023-01-22T19:09:04.835Z,1.54
2023-01-22T19:11:34.991Z,1.62
2023-01-22T19:14:03.430Z,1.62
2023-01-22T19:16:30.458Z,1.54
2023-01-22T19:18:59.865Z,1.59
2023-01-22T19:21:27.379Z,1.61
2023-01-22T19:23:56.749Z,1.98
2023-01-22T19:26:26.211Z,1.95
2023-01-22T19:28:58.728Z,1.86
2023-01-22T19:31:28.343Z,2.07
2023-01-22T19:33:56.443Z,2.19
2023-01-22T19:36:27.489Z,1.97
2023-01-22T19:38:55.388Z,2.07
2023-01-22T19:41:23.501Z,1.89
2023-01-22T19:43:57.331Z,1.83
2023-01-22T19:46:26.106Z,1.70
2023-01-22T19:48:53.839Z,1.63
2023-01-22T19:51:26.840Z,1.56
2023-01-22T19:53:54.739Z,1.59
2023-01-22T19:56:24.722Z,1.53
2023-01-22T19:58:54.127Z,1.53
2023-01-22T20:01:21.589Z,1.50
2023-01-22T20:03:48.174Z,1.65
2023-01-22T20:06:16.236Z,1.52
2023-01-22T20:08:42.932Z,1.55
2023-01-22T20:11:11.515Z,1.70
2023-01-22T20:13:38.879Z,1.76
2023-01-22T20:16:06.924Z,1.90
2023-01-22T20:18:33.689Z,1.82
2023-01-22T20:21:02.148Z,1.79
2023-01-22T20:23:29.874Z,1.69
2023-01-22T20:25:57.129Z,1.63
2023-01-22T20:28:23.752Z,1.53
2023-01-22T20:30:59.082Z,1.66
2023-01-22T20:33:26.468Z,1.66
2023-01-22T20:36:15.315Z,1.51
2023-01-22T20:38:46.601Z,1.48
2023-01-22T20:41:14.131Z,1.46
2023-01-22T20:43:42.643Z,1.59
2023-01-22T20:46:14.963Z,1.64
2023-01-22T20:48:41.849Z,1.52
2023-01-22T20:51:17.044Z,1.46
2023-01-22T20:53:45.504Z,1.47
2023-01-22T20:56:18.545Z,1.51
2023-01-22T20:58:45.232Z,1.57
2023-01-22T21:01:16.408Z,1.62
2023-01-22T21:03:44.057Z,1.62
2023-01-22T21:06:14.036Z,1.81
2023-01-22T21:08:41.710Z,1.81
2023-01-22T21:11:11.697Z,1.92
2023-01-22T21:13:38.484Z,1.72
2023-01-22T21:18:50.328Z,1.72
2023-01-22T21:21:19.271Z,1.70
2023-01-22T21:23:50.553Z,1.65
2023-01-22T21:26:19.530Z,1.51
2023-01-22T21:28:48.370Z,1.53
2023-01-22T21:31:19.860Z,1.46
2023-01-22T21:36:19.981Z,1.41
2023-01-22T21:38:49.491Z,1.40
2023-01-22T21:41:18.757Z,1.41
2023-01-22T21:44:05.939Z,1.36
2023-01-22T21:49:20.418Z,1.48
2023-01-22T21:51:52.571Z,1.35
2023-01-22T21:54:32.794Z,1.34
2023-01-22T21:56:59.632Z,1.37
2023-01-22T21:59:26.204Z,1.31
2023-01-22T22:01:56.158Z,1.39
2023-01-22T22:04:24.842Z,1.30
2023-01-22T22:06:52.409Z,1.33
2023-01-22T22:09:22.133Z,1.41
2023-01-22T22:11:48.870Z,1.38
2023-01-22T22:14:17.596Z,1.39
2023-01-22T22:16:44.715Z,1.35
2023-01-22T22:19:13.221Z,1.33
2023-01-22T22:21:40.210Z,1.34
2023-01-22T22:24:07.703Z,1.42
2023-01-22T22:26:34.611Z,1.32
2023-01-22T22:29:01.454Z,1.37
2023-01-22T22:31:28.037Z,1.26
2023-01-22T22:36:28.907Z,1.40
2023-01-22T22:38:56.044Z,1.26
2023-01-22T22:41:25.795Z,1.22
2023-01-22T22:43:54.196Z,1.21
2023-01-22T22:46:24.103Z,1.29
2023-01-22T22:48:52.166Z,1.38
2023-01-22T22:51:22.129Z,1.39
2023-01-22T22:53:54.167Z,1.40
2023-01-22T22:56:21.290Z,1.50
2023-01-22T23:01:23.634Z,1.69
2023-01-22T23:03:50.808Z,1.63
2023-01-22T23:06:23.831Z,1.54
2023-01-22T23:08:53.281Z,1.47
2023-01-22T23:11:23.362Z,1.44
2023-01-22T23:13:50.343Z,1.48
2023-01-22T23:16:20.040Z,1.41
2023-01-22T23:21:23.178Z,1.43
2023-01-22T23:23:51.169Z,1.37
2023-01-22T23:26:23.034Z,1.47
2023-01-22T23:28:52.168Z,1.40
2023-01-22T23:33:58.021Z,1.24
2023-01-22T23:36:28.083Z,1.28
2023-01-22T23:38:55.244Z,1.49
2023-01-22T23:41:22.834Z,1.50
2023-01-22T23:43:50.350Z,1.44
2023-01-22T23:46:22.748Z,1.40
2023-01-22T23:48:50.223Z,1.42
2023-01-22T23:51:18.849Z,1.47
2023-01-22T23:53:48.014Z,1.45
2023-01-22T23:56:15.672Z,1.33
2023-01-22T23:58:42.852Z,1.41
